Time;durP1;ratioP1;P1;durP2;ratioP2;P2;SDS_P1;SDS_P2;PMS_P1;PMS_P2;Temp;Humidity;BMP_temperature;BMP_pressure;BME280_temperature;BME280_humidity;BME280_pressure;Samples;Min_cycle;Max_cycle;Signal;HPM_P1;HPM_P2
2021/03/12 00:00:40;;;;;;;4.38;0.30;;;;;;;3.22;52.90;99639.03;5053521;28;20044;-71
2021/03/12 00:03:10;;;;;;;9.40;0.60;;;;;;;3.75;51.54;99639.19;5041266;28;20073;-73
2021/03/12 00:05:47;;;;;;;6.07;1.23;;;;;;;3.62;52.13;99637.88;5023203;28;20036;-73
2021/03/12 00:08:13;;;;;;;7.72;0.40;;;;;;;3.38;52.51;99640.31;5064200;28;20332;-74
2021/03/12 00:10:39;;;;;;;5.20;0.32;;;;;;;3.34;52.99;99634.41;5039350;28;20041;-72
2021/03/12 00:13:05;;;;;;;12.10;1.02;;;;;;;3.27;53.46;99644.91;5054722;28;20043;-74
2021/03/12 00:15:30;;;;;;;5.65;0.77;;;;;;;3.43;52.55;99648.78;5070161;28;20052;-73
2021/03/12 00:17:56;;;;;;;7.72;0.68;;;;;;;3.48;53.05;99646.91;5071722;28;20032;-73
2021/03/12 00:20:25;;;;;;;5.32;0.52;;;;;;;3.43;53.17;99648.78;5028599;28;20390;-73
2021/03/12 00:22:51;;;;;;;7.45;0.68;;;;;;;2.63;55.69;99666.47;5040512;28;20033;-73
2021/03/12 00:25:25;;;;;;;12.68;0.82;;;;;;;3.15;54.62;99659.03;5059625;28;20060;-73
2021/03/12 00:27:50;;;;;;;5.63;0.28;;;;;;;3.17;54.50;99658.09;5054741;28;20478;-72
2021/03/12 00:30:20;;;;;;;11.32;0.50;;;;;;;2.92;55.33;99667.44;5040015;28;20094;-72
2021/03/12 00:32:46;;;;;;;10.55;1.27;;;;;;;3.28;54.46;99665.53;5045801;28;20090;-75
2021/03/12 00:35:12;;;;;;;11.80;0.73;;;;;;;2.86;55.65;99665.00;5038791;28;20032;-71
2021/03/12 00:37:37;;;;;;;11.18;1.35;;;;;;;2.85;55.73;99681.41;5025335;28;20107;-72
2021/03/12 00:40:16;;;;;;;19.75;1.10;;;;;;;3.33;54.42;99686.94;5036394;28;20064;-74
2021/03/12 00:42:43;;;;;;;5.55;0.47;;;;;;;3.07;55.24;99685.06;5038932;28;20086;-73
2021/03/12 00:45:14;;;;;;;7.85;0.65;;;;;;;2.84;56.32;99685.69;5054043;23;20044;-71
2021/03/12 00:47:44;;;;;;;5.55;0.57;;;;;;;2.75;56.36;99691.94;5015710;28;20396;-69
2021/03/12 00:50:12;;;;;;;13.68;0.60;;;;;;;3.23;54.94;99687.22;4987453;28;20029;-70
2021/03/12 00:52:38;;;;;;;9.80;1.23;;;;;;;2.90;56.07;99700.16;4969436;28;20359;-69
2021/03/12 00:55:05;;;;;;;8.05;0.93;;;;;;;2.90;56.19;99702.75;4995037;28;20045;-69
2021/03/12 00:57:38;;;;;;;10.63;0.82;;;;;;;2.57;57.38;99697.59;4969662;28;20033;-69
2021/03/12 01:00:06;;;;;;;15.68;1.15;;;;;;;3.16;55.62;99717.53;4967992;28;20034;-69
2021/03/12 01:02:36;;;;;;;14.65;1.30;;;;;;;3.19;55.32;99717.44;4966887;28;20609;-69
2021/03/12 01:05:04;;;;;;;14.02;0.65;;;;;;;3.29;54.97;99718.06;4967533;28;20101;-69
2021/03/12 01:07:30;;;;;;;14.13;2.28;;;;;;;2.83;56.27;99725.28;4994204;28;20054;-69
2021/03/12 01:09:56;;;;;;;20.95;0.80;;;;;;;3.12;55.46;99732.25;4985127;28;20053;-69
2021/03/12 01:12:23;;;;;;;12.55;1.15;;;;;;;3.18;55.49;99734.69;4970236;28;20366;-69
2021/03/12 01:14:49;;;;;;;12.35;1.08;;;;;;;2.63;56.75;99733.56;4967295;28;20114;-68
2021/03/12 01:17:17;;;;;;;8.93;1.05;;;;;;;3.23;54.75;99734.56;4969101;28;20497;-70
2021/03/12 01:19:43;;;;;;;6.07;1.48;;;;;;;3.14;55.31;99735.66;4968144;28;20121;-69
2021/03/12 01:22:11;;;;;;;3.88;0.85;;;;;;;2.73;56.43;99744.47;4968428;28;20066;-69
2021/03/12 01:24:38;;;;;;;11.50;1.17;;;;;;;2.95;55.67;99739.59;4984662;28;20034;-69
2021/03/12 01:27:09;;;;;;;7.63;0.90;;;;;;;2.78;55.52;99750.38;4969253;28;20038;-69
2021/03/12 01:29:35;;;;;;;5.65;1.77;;;;;;;2.86;55.85;99738.09;4972595;28;20433;-70
2021/03/12 01:32:06;;;;;;;11.45;1.23;;;;;;;2.90;55.58;99756.94;4983399;28;20038;-69
2021/03/12 01:34:37;;;;;;;7.93;0.50;;;;;;;2.71;55.94;99760.00;4973552;28;20037;-69
2021/03/12 01:37:04;;;;;;;9.35;1.13;;;;;;;3.39;54.05;99756.50;4984161;28;20580;-69
2021/03/12 01:39:36;;;;;;;11.63;0.90;;;;;;;3.21;54.73;99756.97;4972506;28;20053;-69
2021/03/12 01:42:02;;;;;;;9.75;0.73;;;;;;;2.98;55.11;99762.78;4968243;28;20585;-69
2021/03/12 01:44:33;;;;;;;5.20;0.85;;;;;;;2.76;55.42;99765.06;5001161;28;20038;-69
2021/03/12 01:46:59;;;;;;;14.85;1.30;;;;;;;2.54;56.21;99783.63;4984175;28;20042;-69
2021/03/12 01:49:25;;;;;;;20.17;1.70;;;;;;;3.09;54.57;99772.78;4986525;28;20026;-69
2021/03/12 01:51:52;;;;;;;14.00;1.52;;;;;;;3.27;54.11;99774.03;4969549;28;20034;-69
2021/03/12 01:54:18;;;;;;;19.58;1.60;;;;;;;2.88;55.01;99766.47;4989697;28;20038;-69
2021/03/12 01:56:49;;;;;;;9.85;0.52;;;;;;;4.05;52.10;99776.13;4971168;28;20584;-69
2021/03/12 01:59:32;;;;;;;9.23;1.17;;;;;;;3.18;54.12;99768.25;4974512;28;20089;-69
2021/03/12 02:02:09;;;;;;;12.50;1.42;;;;;;;3.50;53.19;99783.78;4960204;28;20409;-69
2021/03/12 02:04:46;;;;;;;13.43;0.95;;;;;;;3.65;52.91;99785.06;4990030;28;20196;-70
2021/03/12 02:07:14;;;;;;;9.02;1.25;;;;;;;3.42;53.95;99776.22;4990713;28;20486;-69
2021/03/12 02:09:50;;;;;;;7.68;0.55;;;;;;;3.49;53.30;99789.81;4987031;28;20045;-71
2021/03/12 02:12:16;;;;;;;6.70;1.23;;;;;;;3.46;53.61;99803.66;4970077;28;20099;-69
2021/03/12 02:14:57;;;;;;;12.18;1.27;;;;;;;2.97;54.55;99798.03;4987843;28;20073;-70
2021/03/12 02:17:30;;;;;;;9.93;1.92;;;;;;;3.82;52.49;99787.16;4988566;28;20062;-69
2021/03/12 02:20:19;;;;;;;9.98;1.20;;;;;;;3.27;53.64;99792.97;4970948;28;20065;-69
2021/03/12 02:22:51;;;;;;;15.45;1.05;;;;;;;3.18;54.55;99803.56;4969459;28;20038;-69
2021/03/12 02:25:17;;;;;;;5.47;0.93;;;;;;;3.52;53.13;99798.34;4971672;28;20042;-70
2021/03/12 02:28:03;;;;;;;13.57;1.10;;;;;;;3.02;54.42;99810.00;4973775;28;20038;-69
2021/03/12 02:30:28;;;;;;;6.53;0.85;;;;;;;3.23;53.83;99806.84;4986888;28;20096;-70
2021/03/12 02:32:56;;;;;;;13.15;0.93;;;;;;;2.97;54.60;99821.28;4968530;28;20124;-70
2021/03/12 02:35:35;;;;;;;12.40;0.85;;;;;;;3.11;54.30;99832.97;4997270;28;20027;-69
2021/03/12 02:38:18;;;;;;;9.48;0.57;;;;;;;3.29;53.60;99821.34;4997407;28;20508;-69
2021/03/12 02:40:47;;;;;;;18.40;1.83;;;;;;;3.23;53.77;99826.69;5001382;28;20085;-70
2021/03/12 02:43:15;;;;;;;6.43;1.67;;;;;;;3.20;53.98;99814.66;4986200;28;20079;-70
2021/03/12 02:45:42;;;;;;;12.27;0.88;;;;;;;2.11;56.35;99832.78;4971189;28;20046;-69
2021/03/12 02:48:16;;;;;;;16.83;1.08;;;;;;;3.15;54.16;99835.44;4997039;28;20030;-70
2021/03/12 02:50:43;;;;;;;10.98;0.63;;;;;;;3.52;52.92;99847.44;4973013;28;20498;-69
2021/03/12 02:53:15;;;;;;;8.77;1.13;;;;;;;3.48;53.11;99848.41;4985224;28;20046;-71
2021/03/12 02:55:41;;;;;;;15.10;1.10;;;;;;;2.59;55.57;99849.75;4971246;28;20038;-71
2021/03/12 02:58:15;;;;;;;12.32;1.42;;;;;;;3.58;53.00;99856.75;4970393;28;20022;-69
2021/03/12 03:00:41;;;;;;;9.98;1.40;;;;;;;3.43;52.98;99860.59;4970969;28;20042;-69
2021/03/12 03:03:28;;;;;;;12.68;1.40;;;;;;;3.20;53.64;99866.31;4985918;28;20081;-69
2021/03/12 03:06:05;;;;;;;9.60;1.20;;;;;;;3.14;53.68;99851.84;4971916;28;20077;-70
2021/03/12 03:08:33;;;;;;;12.00;1.00;;;;;;;2.86;54.36;99856.00;4970205;28;20034;-70
2021/03/12 03:11:01;;;;;;;11.82;1.33;;;;;;;2.83;54.44;99874.13;4985608;28;20366;-69
2021/03/12 03:13:33;;;;;;;12.50;1.02;;;;;;;2.58;55.02;99874.72;4984970;28;20080;-70
2021/03/12 03:16:00;;;;;;;7.40;0.95;;;;;;;2.53;55.22;99871.38;4985050;28;20050;-69
2021/03/12 03:18:28;;;;;;;6.68;0.82;;;;;;;2.33;55.98;99875.25;4972936;28;20121;-70
2021/03/12 03:20:55;;;;;;;9.18;0.75;;;;;;;2.46;55.82;99880.97;4986191;28;20040;-69
2021/03/12 03:23:23;;;;;;;11.95;0.85;;;;;;;2.74;54.87;99891.53;4984429;28;20026;-69
2021/03/12 03:25:50;;;;;;;5.45;1.83;;;;;;;2.73;54.54;99892.41;4970045;28;20081;-69
2021/03/12 03:28:25;;;;;;;16.33;0.95;;;;;;;2.53;55.93;99897.16;4996413;28;20502;-69
2021/03/12 03:30:52;;;;;;;8.30;1.35;;;;;;;2.94;54.57;99895.38;4985563;28;20038;-69
2021/03/12 03:33:18;;;;;;;12.55;2.08;;;;;;;2.64;55.08;99894.34;4953827;28;20042;-69
2021/03/12 03:35:44;;;;;;;7.95;1.30;;;;;;;3.17;54.15;99905.97;4970850;28;20593;-70
2021/03/12 03:38:10;;;;;;;13.93;1.17;;;;;;;3.19;53.82;99913.69;4969350;28;20125;-70
2021/03/12 03:40:36;;;;;;;10.35;1.60;;;;;;;3.52;52.94;99914.59;4971151;28;20061;-69
2021/03/12 03:43:04;;;;;;;9.57;1.30;;;;;;;2.98;53.97;99922.81;4971957;28;20121;-69
2021/03/12 03:45:32;;;;;;;8.82;0.82;;;;;;;2.88;53.99;99909.25;4971396;28;20034;-69
2021/03/12 03:48:12;;;;;;;11.27;1.95;;;;;;;2.47;55.40;99921.38;4997931;28;20034;-69
2021/03/12 03:50:40;;;;;;;11.50;1.75;;;;;;;2.59;54.81;99927.16;5001615;28;20030;-70
2021/03/12 03:53:08;;;;;;;7.65;1.00;;;;;;;2.38;55.25;99931.88;4998184;28;20041;-69
2021/03/12 03:55:34;;;;;;;16.42;1.10;;;;;;;2.87;54.11;99942.88;4985915;28;20030;-68
2021/03/12 03:58:02;;;;;;;9.90;0.95;;;;;;;2.86;53.69;99928.25;4997126;28;20104;-69
2021/03/12 04:00:30;;;;;;;12.18;1.70;;;;;;;3.21;53.07;99939.50;4970390;28;20037;-69
2021/03/12 04:03:03;;;;;;;7.65;1.33;;;;;;;2.92;53.25;99949.59;4998901;28;20038;-69
2021/03/12 04:05:33;;;;;;;9.68;0.82;;;;;;;3.25;52.60;99954.00;4982284;28;20026;-70
2021/03/12 04:08:03;;;;;;;10.65;1.05;;;;;;;3.01;53.49;99945.13;4968279;28;20259;-69
2021/03/12 04:10:29;;;;;;;12.02;1.42;;;;;;;3.23;52.62;99956.63;4969109;28;20042;-70
2021/03/12 04:12:57;;;;;;;9.80;0.95;;;;;;;3.53;51.89;99944.72;4997442;28;23476;-70
2021/03/12 04:15:25;;;;;;;10.27;1.45;;;;;;;2.31;54.06;99938.91;4987652;28;20034;-69
2021/03/12 04:17:52;;;;;;;6.88;0.90;;;;;;;2.74;53.66;99948.28;4995413;28;20073;-69
2021/03/12 04:20:19;;;;;;;5.13;1.10;;;;;;;2.72;53.49;99950.06;4954372;28;20045;-69
2021/03/12 04:22:49;;;;;;;8.38;1.33;;;;;;;2.80;53.68;99946.44;4986739;28;20034;-69
2021/03/12 04:25:17;;;;;;;14.25;2.40;;;;;;;3.10;52.79;99955.22;4953641;28;20046;-70
2021/03/12 04:27:43;;;;;;;10.38;0.90;;;;;;;2.97;53.00;99950.34;4967621;28;20041;-70
2021/03/12 04:30:11;;;;;;;11.63;1.58;;;;;;;3.43;51.81;99963.09;4968915;28;20041;-70
2021/03/12 04:32:39;;;;;;;11.57;1.00;;;;;;;2.46;54.50;99962.66;4982029;28;20433;-69
2021/03/12 04:35:07;;;;;;;11.07;1.20;;;;;;;2.63;54.23;99965.75;4969737;28;20034;-70
2021/03/12 04:37:35;;;;;;;3.00;0.70;;;;;;;3.02;52.95;99968.31;4952542;28;20219;-69
2021/03/12 04:40:04;;;;;;;12.90;0.70;;;;;;;3.25;52.15;99965.19;4967674;28;20531;-69
2021/03/12 04:42:31;;;;;;;6.85;1.17;;;;;;;2.60;53.94;99968.41;4985044;28;20601;-70
2021/03/12 04:44:57;;;;;;;5.93;0.57;;;;;;;2.59;54.02;99984.75;4966303;28;20042;-70
2021/03/12 04:47:24;;;;;;;13.57;1.83;;;;;;;2.39;54.25;99979.16;4995881;28;20039;-70
2021/03/12 04:49:53;;;;;;;11.05;1.65;;;;;;;2.53;53.42;99990.03;4982766;28;20042;-70
2021/03/12 04:52:19;;;;;;;12.98;1.40;;;;;;;2.90;52.48;99989.25;4951884;28;20034;-71
2021/03/12 04:54:46;;;;;;;13.35;0.85;;;;;;;2.26;54.36;99987.13;4998649;28;20129;-69
2021/03/12 04:57:16;;;;;;;18.05;1.85;;;;;;;2.40;54.05;99998.88;4973027;28;20034;-70
2021/03/12 04:59:42;;;;;;;14.00;1.38;;;;;;;1.81;55.59;99994.00;4983486;28;20027;-69
2021/03/12 05:02:11;;;;;;;6.10;0.93;;;;;;;2.39;53.95;100002.38;4968088;28;20030;-69
2021/03/12 05:04:39;;;;;;;9.73;0.60;;;;;;;2.23;54.32;100004.41;4984090;28;20026;-69
2021/03/12 05:07:08;;;;;;;7.47;0.75;;;;;;;2.41;53.48;100005.78;4967369;28;20034;-69
2021/03/12 05:09:52;;;;;;;14.50;1.20;;;;;;;2.37;53.86;100011.84;4967365;28;20097;-70
2021/03/12 05:12:21;;;;;;;11.18;1.73;;;;;;;2.55;53.35;100011.47;4984663;28;20528;-69
2021/03/12 05:14:46;;;;;;;13.02;0.90;;;;;;;2.68;53.00;100010.34;4967707;28;20023;-69
2021/03/12 05:17:12;;;;;;;5.80;0.55;;;;;;;2.05;54.96;100003.88;4967841;28;20053;-69
2021/03/12 05:19:39;;;;;;;5.55;0.60;;;;;;;2.23;54.14;100002.66;4981460;28;20038;-69
2021/03/12 05:22:05;;;;;;;8.13;0.60;;;;;;;1.82;55.32;100017.19;4966758;28;20114;-69
2021/03/12 05:24:33;;;;;;;10.27;1.33;;;;;;;2.49;53.47;100009.06;4950937;28;20041;-69
2021/03/12 05:27:00;;;;;;;13.02;0.60;;;;;;;1.81;55.50;100015.47;4967989;28;20038;-69
2021/03/12 05:29:30;;;;;;;9.57;1.30;;;;;;;2.21;54.52;100019.88;4987797;28;20026;-69
2021/03/12 05:32:00;;;;;;;13.30;1.40;;;;;;;1.76;55.44;100027.56;4969397;28;20046;-70
2021/03/12 05:34:27;;;;;;;10.40;1.20;;;;;;;2.49;53.31;100027.09;4969356;28;20089;-70
2021/03/12 05:36:54;;;;;;;9.35;1.00;;;;;;;1.24;56.80;100030.97;4972100;28;20231;-69
2021/03/12 05:39:22;;;;;;;15.45;0.57;;;;;;;2.08;54.43;100029.56;4970023;28;20180;-69
2021/03/12 05:41:49;;;;;;;12.02;1.15;;;;;;;1.87;54.98;100035.97;4974418;28;20038;-69
2021/03/12 05:44:19;;;;;;;12.38;0.70;;;;;;;1.82;54.60;100035.22;4955623;28;20037;-69
2021/03/12 05:46:46;;;;;;;7.13;0.60;;;;;;;2.04;54.40;100038.25;4989826;28;20031;-69
2021/03/12 05:49:14;;;;;;;9.18;1.17;;;;;;;2.35;53.24;100048.84;4986428;28;20679;-69
2021/03/12 05:51:42;;;;;;;17.13;2.50;;;;;;;1.85;54.62;100053.19;4987832;28;20042;-70
2021/03/12 05:54:08;;;;;;;15.85;1.23;;;;;;;1.95;54.53;100053.88;4969416;28;20076;-69
2021/03/12 05:56:37;;;;;;;10.77;0.70;;;;;;;2.02;53.55;100040.00;4985224;28;20647;-69
2021/03/12 05:59:04;;;;;;;7.63;1.52;;;;;;;1.79;54.47;100042.97;4969685;28;20038;-70
2021/03/12 06:01:31;;;;;;;1.80;0.40;;;;;;;1.64;54.92;100053.53;4969229;28;20154;-70
2021/03/12 06:03:57;;;;;;;7.57;0.80;;;;;;;1.34;55.90;100055.69;4987716;28;20030;-69
2021/03/12 06:06:26;;;;;;;4.55;0.85;;;;;;;2.29;53.05;100054.13;4996759;28;20034;-69
2021/03/12 06:08:53;;;;;;;10.18;1.55;;;;;;;2.28;52.79;100049.00;4969898;28;20061;-70
2021/03/12 06:11:20;;;;;;;3.20;0.55;;;;;;;2.49;52.28;100053.75;4969057;28;20037;-70
2021/03/12 06:13:50;;;;;;;11.95;1.05;;;;;;;2.43;52.56;100047.84;4952842;28;20049;-70
2021/03/12 06:16:28;;;;;;;11.70;0.57;;;;;;;2.14;53.23;100059.56;4982984;28;20104;-69
2021/03/12 06:19:13;;;;;;;7.15;0.98;;;;;;;2.01;53.69;100060.66;4970350;28;20402;-70
2021/03/12 06:21:43;;;;;;;7.63;1.35;;;;;;;2.37;52.80;100068.59;4985621;28;20072;-69
2021/03/12 06:24:21;;;;;;;10.77;0.52;;;;;;;1.96;54.02;100065.03;4996870;28;20151;-71
2021/03/12 06:26:49;;;;;;;14.60;0.95;;;;;;;2.17;53.48;100074.97;4996530;28;20117;-69
2021/03/12 06:29:31;;;;;;;8.57;0.95;;;;;;;2.49;52.61;100070.97;4995093;28;20946;-70
2021/03/12 06:32:36;;;;;;;7.25;1.33;;;;;;;2.41;52.90;100078.81;4980091;28;20045;-69
2021/03/12 06:35:14;;;;;;;8.35;0.73;;;;;;;2.49;52.77;100079.53;4984396;28;20076;-70
2021/03/12 06:38:06;;;;;;;11.00;0.73;;;;;;;3.12;51.04;100082.56;4969822;28;20052;-70
2021/03/12 06:40:42;;;;;;;10.93;1.20;;;;;;;3.14;50.85;100086.81;4969312;28;20026;-70
2021/03/12 06:43:18;;;;;;;6.43;0.68;;;;;;;3.16;50.81;100090.22;4985393;28;20038;-70
2021/03/12 06:45:47;;;;;;;9.77;0.95;;;;;;;2.40;52.88;100092.63;4969223;28;20038;-70
2021/03/12 06:48:25;;;;;;;8.68;1.00;;;;;;;2.71;52.12;100092.88;4987250;28;20096;-69
2021/03/12 06:51:00;;;;;;;14.27;0.68;;;;;;;3.74;49.41;100087.22;4954893;28;20038;-69
2021/03/12 06:53:26;;;;;;;6.10;0.60;;;;;;;3.80;48.85;100094.81;4996399;28;20031;-71
2021/03/12 06:55:53;;;;;;;3.60;1.15;;;;;;;4.42;47.99;100096.69;4971369;28;20045;-71
2021/03/12 06:58:32;;;;;;;3.92;0.65;;;;;;;5.23;46.06;100085.78;4970876;28;20057;-71
2021/03/12 07:01:21;;;;;;;10.68;0.98;;;;;;;5.45;44.48;100097.16;4967504;28;20038;-71
2021/03/12 07:04:14;;;;;;;13.98;1.05;;;;;;;5.11;44.98;100097.34;4956200;28;20430;-69
2021/03/12 07:07:01;;;;;;;5.32;0.65;;;;;;;3.70;49.14;100101.09;4992184;28;20043;-69
2021/03/12 07:09:30;;;;;;;7.63;0.63;;;;;;;3.94;48.86;100095.31;4968380;28;20132;-69
2021/03/12 07:12:12;;;;;;;;;;;;;;;5.35;45.27;100100.13;4992774;28;20113;-69
2021/03/12 07:14:50;;;;;;;3.75;0.40;;;;;;;7.66;41.59;100101.53;4994962;28;20015;-69
2021/03/12 07:17:39;;;;;;;5.55;0.93;;;;;;;6.28;43.10;100104.03;4981461;28;20034;-69
2021/03/12 07:20:17;;;;;;;3.92;0.55;;;;;;;6.55;42.25;100109.16;4985487;28;20145;-69
2021/03/12 07:22:46;;;;;;;5.57;0.60;;;;;;;8.11;40.31;100108.38;4983866;28;20134;-69
2021/03/12 07:25:13;;;;;;;7.55;0.77;;;;;;;5.29;45.15;100114.09;4996029;28;20034;-70
2021/03/12 07:27:51;;;;;;;7.18;0.45;;;;;;;6.40;43.55;100107.97;4972367;28;23568;-69
2021/03/12 07:30:21;;;;;;;10.68;0.50;;;;;;;6.83;41.43;100112.47;4996037;28;20094;-69
2021/03/12 07:32:52;;;;;;;8.00;0.50;;;;;;;5.17;46.25;100111.88;4983171;28;20517;-69
2021/03/12 07:35:26;;;;;;;4.82;0.57;;;;;;;5.55;45.36;100115.91;4955609;28;20034;-69
2021/03/12 07:38:06;;;;;;;5.35;0.50;;;;;;;5.83;45.30;100109.81;4966431;28;20053;-71
2021/03/12 07:40:36;;;;;;;4.45;0.30;;;;;;;8.14;40.50;100110.00;4962359;28;20039;-69
2021/03/12 07:43:12;;;;;;;7.63;0.85;;;;;;;6.07;44.36;100114.19;4968893;28;20038;-69
2021/03/12 07:46:03;;;;;;;12.73;1.40;;;;;;;7.40;40.65;100112.06;4993698;28;20081;-70
2021/03/12 07:48:54;;;;;;;8.13;0.77;;;;;;;6.87;42.12;100127.03;4985921;28;20052;-70
2021/03/12 07:51:48;;;;;;;5.88;0.85;;;;;;;6.32;43.60;100131.56;4965839;28;20477;-69
2021/03/12 07:54:41;;;;;;;5.97;0.90;;;;;;;4.97;46.22;100128.00;4983824;28;20042;-70
2021/03/12 07:57:31;;;;;;;8.18;1.35;;;;;;;5.60;45.93;100142.50;4980577;28;20022;-70
2021/03/12 08:00:15;;;;;;;9.18;0.57;;;;;;;5.63;45.91;100137.22;4952804;28;20056;-70
2021/03/12 08:03:07;;;;;;;6.45;0.60;;;;;;;5.16;46.13;100130.91;4983312;28;20057;-70
2021/03/12 08:05:36;;;;;;;6.22;0.63;;;;;;;5.92;44.89;100121.66;4995213;28;20049;-71
2021/03/12 08:08:04;;;;;;;6.10;1.02;;;;;;;5.32;46.30;100132.13;4966808;28;20262;-69
2021/03/12 08:10:30;;;;;;;10.07;0.70;;;;;;;4.99;47.16;100123.63;4950483;28;20034;-72
2021/03/12 08:12:59;;;;;;;6.63;0.57;;;;;;;4.11;49.56;100127.66;4992985;28;20113;-71
2021/03/12 08:15:38;;;;;;;8.13;0.65;;;;;;;4.25;48.46;100138.50;4953872;28;20053;-69
2021/03/12 08:18:19;;;;;;;3.67;0.68;;;;;;;4.46;48.30;100134.53;4993683;28;20457;-70
2021/03/12 08:20:54;;;;;;;6.28;1.73;;;;;;;3.79;50.10;100132.72;4968076;28;20043;-70
2021/03/12 08:23:43;;;;;;;4.35;1.80;;;;;;;4.31;48.52;100129.75;4977140;28;20038;-69
2021/03/12 08:26:46;;;;;;;8.80;0.90;;;;;;;4.38;48.29;100137.28;4968753;28;20497;-69
2021/03/12 08:29:30;;;;;;;5.05;0.63;;;;;;;5.17;46.54;100119.66;4981470;28;20135;-69
2021/03/12 08:31:57;;;;;;;15.75;0.95;;;;;;;5.20;46.71;100122.97;4966899;28;20122;-69
2021/03/12 08:34:42;;;;;;;7.80;0.80;;;;;;;4.22;48.34;100120.47;4969298;28;20112;-71
2021/03/12 08:37:29;;;;;;;6.45;0.57;;;;;;;4.34;48.29;100108.97;4985396;28;20108;-70
2021/03/12 08:40:22;;;;;;;8.60;1.10;;;;;;;4.51;47.74;100118.88;4966483;28;20121;-71
2021/03/12 08:43:08;;;;;;;3.92;1.48;;;;;;;4.21;47.67;100106.72;4982629;28;20061;-69
2021/03/12 08:46:21;;;;;;;7.45;0.73;;;;;;;4.57;48.06;100116.13;4958068;28;20129;-69
2021/03/12 08:48:50;;;;;;;8.70;1.17;;;;;;;4.91;47.06;100112.63;4982210;28;20038;-69
2021/03/12 08:51:22;;;;;;;7.80;1.23;;;;;;;4.63;47.46;100136.66;4970828;28;20053;-69
2021/03/12 08:54:02;;;;;;;8.43;1.20;;;;;;;5.57;45.79;100110.63;4972828;28;20121;-69
2021/03/12 08:56:37;;;;;;;9.15;0.70;;;;;;;5.07;46.34;100126.81;4997897;28;20123;-69
2021/03/12 08:59:04;;;;;;;9.30;1.38;;;;;;;4.98;46.42;100127.94;4990856;28;20069;-69
2021/03/12 09:01:57;;;;;;;4.60;0.57;;;;;;;5.11;46.99;100122.41;4988583;28;20042;-69
2021/03/12 09:04:31;;;;;;;6.18;0.70;;;;;;;5.74;45.50;100130.88;4955466;28;20038;-69
2021/03/12 09:07:13;;;;;;;7.28;1.33;;;;;;;4.81;46.97;100130.13;4971124;28;20129;-69
2021/03/12 09:09:46;;;;;;;4.53;1.10;;;;;;;4.46;48.35;100116.41;4994523;28;20133;-69
2021/03/12 09:12:25;;;;;;;8.02;1.08;;;;;;;4.69;48.00;100130.47;4980363;28;20034;-68
2021/03/12 09:14:56;;;;;;;9.73;1.50;;;;;;;4.50;47.32;100114.56;4968590;28;20118;-69
2021/03/12 09:17:24;;;;;;;4.75;1.05;;;;;;;4.96;47.26;100123.69;4992704;28;21059;-69
2021/03/12 09:19:54;;;;;;;17.10;1.52;;;;;;;6.24;44.52;100112.81;4953556;28;20035;-68
2021/03/12 09:22:25;;;;;;;16.75;2.08;;;;;;;5.58;45.63;100113.19;4967443;28;20046;-69
2021/03/12 09:24:56;;;;;;;16.83;2.40;;;;;;;5.16;45.93;100126.56;4990420;28;20041;-71
2021/03/12 09:27:35;;;;;;;6.40;1.35;;;;;;;5.47;45.09;100102.31;4984823;28;20281;-69
2021/03/12 09:30:30;;;;;;;8.43;1.17;;;;;;;5.25;45.86;100113.31;4969148;28;20045;-69
2021/03/12 09:33:39;;;;;;;9.32;1.05;;;;;;;5.03;47.27;100099.31;4984169;28;20655;-70
2021/03/12 09:36:28;;;;;;;8.05;1.20;;;;;;;5.26;46.04;100121.97;4984377;28;20706;-69
2021/03/12 09:39:18;;;;;;;6.97;1.23;;;;;;;5.23;46.13;100112.56;4987489;28;20044;-70
2021/03/12 09:41:51;;;;;;;13.93;1.38;;;;;;;5.11;46.64;100110.31;4970170;28;20040;-69
2021/03/12 09:44:17;;;;;;;6.30;1.30;;;;;;;6.13;44.45;100104.50;4970112;28;22012;-70
2021/03/12 09:46:54;;;;;;;9.52;1.25;;;;;;;5.76;45.46;100106.56;4996684;28;20497;-69
2021/03/12 09:49:21;;;;;;;8.65;1.05;;;;;;;5.19;46.76;100110.06;4984354;28;20536;-69
2021/03/12 09:51:52;;;;;;;9.05;1.83;;;;;;;5.95;45.02;100117.22;4994854;28;20022;-69
2021/03/12 09:54:18;;;;;;;4.82;1.05;;;;;;;5.67;44.82;100112.91;4972824;28;20034;-71
2021/03/12 09:56:54;;;;;;;9.73;1.52;;;;;;;4.65;47.36;100108.97;4998577;28;20034;-71
2021/03/12 09:59:24;;;;;;;7.45;1.30;;;;;;;4.98;46.16;100121.91;4981784;28;20069;-69
2021/03/12 10:02:12;;;;;;;9.75;1.15;;;;;;;4.77;47.39;100110.41;4969298;28;20672;-70
2021/03/12 10:05:04;;;;;;;15.40;2.05;;;;;;;5.24;47.13;100106.47;4990011;28;20145;-69
2021/03/12 10:07:50;;;;;;;8.95;1.25;;;;;;;5.89;45.19;100107.03;4970957;28;20117;-69
2021/03/12 10:10:29;;;;;;;8.98;1.05;;;;;;;6.01;44.87;100106.63;4971458;28;20030;-69
2021/03/12 10:13:00;;;;;;;5.97;0.77;;;;;;;5.12;46.61;100109.41;4964812;28;20038;-69
2021/03/12 10:15:36;;;;;;;9.82;0.77;;;;;;;5.62;44.83;100104.44;4954673;28;20093;-69
2021/03/12 10:18:22;;;;;;;6.32;0.95;;;;;;;6.68;44.03;100103.47;4983993;28;20031;-71
2021/03/12 10:20:47;;;;;;;5.82;0.65;;;;;;;4.83;46.35;100108.50;4968267;28;20049;-68
2021/03/12 10:23:14;;;;;;;9.18;1.65;;;;;;;6.22;45.53;100104.22;4985889;28;20042;-69
2021/03/12 10:25:46;;;;;;;9.05;1.20;;;;;;;6.08;44.57;100105.53;4984034;28;20605;-69
2021/03/12 10:28:19;;;;;;;7.90;0.88;;;;;;;5.72;45.18;100119.69;4976986;28;20038;-69
2021/03/12 10:30:49;;;;;;;9.70;1.27;;;;;;;6.12;44.42;100108.84;4984833;28;20049;-69
2021/03/12 10:33:18;;;;;;;4.25;0.52;;;;;;;6.25;44.51;100109.31;4990355;28;20409;-69
2021/03/12 10:35:49;;;;;;;4.45;1.00;;;;;;;5.78;45.52;100099.59;4984794;28;20076;-69
2021/03/12 10:38:20;;;;;;;6.32;0.63;;;;;;;6.16;44.79;100091.44;4987039;28;20614;-69
2021/03/12 10:40:49;;;;;;;5.57;1.17;;;;;;;4.84;47.73;100093.81;4985091;28;20042;-69
2021/03/12 10:43:16;;;;;;;12.23;1.33;;;;;;;6.02;45.61;100092.75;4969157;28;20069;-71
2021/03/12 10:45:48;;;;;;;15.55;3.10;;;;;;;5.39;47.20;100096.50;4969070;28;20105;-70
2021/03/12 10:48:14;;;;;;;16.08;1.13;;;;;;;5.16;46.68;100097.22;5003423;28;20834;-69
2021/03/12 10:50:42;;;;;;;12.35;1.23;;;;;;;4.06;49.01;100083.81;4970897;28;20463;-69
2021/03/12 10:53:13;;;;;;;10.90;1.48;;;;;;;4.59;48.58;100099.66;4992047;28;20034;-69
2021/03/12 10:55:45;;;;;;;4.47;0.50;;;;;;;4.18;48.74;100082.66;4985623;28;20030;-69
2021/03/12 10:58:27;;;;;;;7.20;1.55;;;;;;;5.69;46.18;100083.50;4992044;28;20055;-70
2021/03/12 11:01:19;;;;;;;5.53;0.82;;;;;;;5.58;45.76;100095.03;4969434;28;20062;-69
2021/03/12 11:03:46;;;;;;;10.10;1.50;;;;;;;5.92;45.25;100080.97;4985240;28;20037;-69
2021/03/12 11:06:13;;;;;;;9.48;1.27;;;;;;;5.42;46.87;100093.84;4984652;28;20581;-69
2021/03/12 11:08:39;;;;;;;8.40;1.02;;;;;;;5.48;46.00;100090.19;4983657;28;20767;-69
2021/03/12 11:11:07;;;;;;;12.05;1.23;;;;;;;5.50;46.07;100076.28;4986937;28;20112;-69
2021/03/12 11:13:34;;;;;;;7.68;0.88;;;;;;;4.83;47.46;100077.44;4972944;28;20026;-69
2021/03/12 11:16:00;;;;;;;9.13;0.90;;;;;;;5.34;46.78;100068.16;4968459;28;20037;-69
2021/03/12 11:18:28;;;;;;;7.07;1.60;;;;;;;5.60;46.39;100069.09;4981879;28;20514;-69
2021/03/12 11:20:55;;;;;;;8.80;0.82;;;;;;;5.72;47.00;100080.78;4986243;28;20057;-69
2021/03/12 11:23:21;;;;;;;9.38;0.80;;;;;;;5.27;48.85;100071.00;4968103;28;20039;-69
2021/03/12 11:25:47;;;;;;;9.13;1.05;;;;;;;5.21;51.11;100083.25;4967687;28;20415;-69
2021/03/12 11:28:12;;;;;;;9.13;1.25;;;;;;;4.88;49.85;100091.97;4994819;28;20042;-69
2021/03/12 11:30:38;;;;;;;10.20;2.05;;;;;;;4.70;51.34;100096.78;4983714;28;20088;-69
2021/03/12 11:33:04;;;;;;;8.77;1.08;;;;;;;3.99;54.39;100097.81;4966814;28;20031;-69
2021/03/12 11:35:29;;;;;;;7.90;1.67;;;;;;;4.02;54.54;100088.22;4967545;28;20138;-69
2021/03/12 11:37:55;;;;;;;6.88;0.82;;;;;;;4.17;54.37;100075.78;4981835;28;20110;-69
2021/03/12 11:40:21;;;;;;;6.63;1.20;;;;;;;4.69;52.96;100069.19;4984046;28;20039;-69
2021/03/12 11:42:46;;;;;;;7.72;0.93;;;;;;;4.01;52.21;100081.34;4981625;28;20049;-69
2021/03/12 11:45:15;;;;;;;5.75;0.75;;;;;;;5.10;50.39;100068.91;4965834;28;20086;-69
2021/03/12 11:47:41;;;;;;;15.30;2.42;;;;;;;5.06;50.53;100055.22;4966402;28;20034;-69
2021/03/12 11:50:13;;;;;;;1.92;0.68;;;;;;;6.16;48.70;100047.34;4988329;28;20105;-69
2021/03/12 11:52:39;;;;;;;7.80;0.80;;;;;;;6.06;48.65;100037.28;4984689;28;20038;-69
2021/03/12 11:55:07;;;;;;;9.50;0.70;;;;;;;5.62;49.61;100033.59;4994515;28;20039;-69
2021/03/12 11:57:33;;;;;;;7.13;0.55;;;;;;;6.75;46.88;100025.34;4969429;28;20050;-71